createdAt,value
2018-08-27T00:00:53.674Z,101069.70
2018-08-27T00:03:22.017Z,101063.32
2018-08-27T00:05:50.325Z,101063.27
2018-08-27T00:08:20.656Z,101045.20
2018-08-27T00:10:48.964Z,101051.19
2018-08-27T00:13:17.295Z,101048.17
2018-08-27T00:15:45.585Z,101040.91
2018-08-27T00:18:13.921Z,101035.29
2018-08-27T00:20:42.197Z,101036.48
2018-08-27T00:23:10.513Z,101023.64
2018-08-27T00:25:38.789Z,101023.02
2018-08-27T00:28:07.128Z,101019.09
2018-08-27T00:30:35.403Z,101017.78
2018-08-27T00:33:03.721Z,101015.75
2018-08-27T00:35:32.039Z,101011.75
2018-08-27T00:38:00.337Z,101002.87
2018-08-27T00:40:28.612Z,101001.30
2018-08-27T00:42:56.983Z,100992.75
2018-08-27T00:45:26.309Z,100991.64
2018-08-27T00:47:54.635Z,100986.40
2018-08-27T00:50:22.915Z,100981.16
2018-08-27T00:52:51.313Z,100978.02
2018-08-27T00:55:20.629Z,100975.56
2018-08-27T00:57:48.898Z,100974.88
2018-08-27T01:00:17.184Z,100961.00
2018-08-27T01:02:45.433Z,100960.87
2018-08-27T01:05:13.745Z,100960.34
2018-08-27T01:07:42.057Z,100956.57
2018-08-27T01:10:10.386Z,100946.59
2018-08-27T01:12:38.669Z,100951.12
2018-08-27T01:15:07.212Z,100958.66
2018-08-27T01:17:35.583Z,100953.73
2018-08-27T01:20:03.937Z,100945.64
2018-08-27T01:22:32.269Z,100940.22
2018-08-27T01:25:00.516Z,100932.28
2018-08-27T01:27:28.778Z,100928.37
2018-08-27T01:29:57.071Z,100926.53
2018-08-27T01:32:27.581Z,100923.43
2018-08-27T01:34:57.732Z,100911.49
2018-08-27T01:37:27.430Z,100899.57
2018-08-27T01:39:56.235Z,100887.87
2018-08-27T01:42:25.430Z,100880.08
2018-08-27T01:44:53.684Z,100879.77
2018-08-27T01:47:21.990Z,100879.11
2018-08-27T01:49:50.249Z,100879.73
2018-08-27T01:52:18.596Z,100881.71
2018-08-27T01:54:46.934Z,100880.41
2018-08-27T01:57:15.485Z,100873.49
2018-08-27T01:59:43.849Z,100883.09
2018-08-27T02:02:12.152Z,100873.00
2018-08-27T02:04:40.473Z,100874.66
2018-08-27T02:07:08.880Z,100885.05
2018-08-27T02:09:37.165Z,100884.97
2018-08-27T02:12:05.501Z,100884.00
2018-08-27T02:14:33.781Z,100879.81
2018-08-27T02:17:02.367Z,100875.00
2018-08-27T02:19:30.668Z,100876.95
2018-08-27T02:21:58.997Z,100882.23
2018-08-27T02:24:28.245Z,100876.67
2018-08-27T02:26:56.566Z,100871.70
2018-08-27T02:29:24.845Z,100852.67
2018-08-27T02:31:53.145Z,100846.77
2018-08-27T02:34:21.465Z,100840.37
2018-08-27T02:36:51.494Z,100831.80
2018-08-27T02:39:19.815Z,100824.13
2018-08-27T02:41:48.070Z,100819.66
2018-08-27T02:44:16.356Z,100815.72
2018-08-27T02:46:44.625Z,100810.40
2018-08-27T02:49:12.918Z,100803.80
2018-08-27T02:51:41.187Z,100794.23
2018-08-27T02:54:09.494Z,100791.77
2018-08-27T02:56:38.771Z,100787.30
2018-08-27T02:59:07.041Z,100779.69
2018-08-27T03:01:35.317Z,100777.71
2018-08-27T03:04:04.206Z,100779.73
2018-08-27T03:06:32.541Z,100777.64
2018-08-27T03:09:00.934Z,100781.10
2018-08-27T03:11:30.298Z,100772.66
2018-08-27T03:13:59.605Z,100774.57
2018-08-27T03:16:27.877Z,100777.31
2018-08-27T03:18:56.217Z,100773.84
2018-08-27T03:21:24.494Z,100772.21
2018-08-27T03:23:52.812Z,100776.05
2018-08-27T03:26:21.119Z,100765.17
2018-08-27T03:28:49.430Z,100766.66
2018-08-27T03:31:18.670Z,100761.61
2018-08-27T03:33:47.582Z,100762.64
2018-08-27T03:36:16.047Z,100762.64
2018-08-27T03:38:44.306Z,100753.33
2018-08-27T03:41:12.589Z,100747.24
2018-08-27T03:43:40.841Z,100748.23
2018-08-27T03:46:09.221Z,100744.48
2018-08-27T03:48:37.538Z,100747.31
2018-08-27T03:51:05.843Z,100739.36
2018-08-27T03:53:34.189Z,100728.87
2018-08-27T03:56:02.466Z,100724.26
2018-08-27T03:58:30.728Z,100725.58
2018-08-27T04:00:59.018Z,100721.13
2018-08-27T04:03:27.261Z,100711.61
2018-08-27T04:05:55.554Z,100718.40
2018-08-27T04:08:23.813Z,100705.31
2018-08-27T04:10:52.090Z,100708.31
2018-08-27T04:13:21.357Z,100710.77
2018-08-27T04:15:49.621Z,100708.97
2018-08-27T04:18:18.966Z,100710.48
2018-08-27T04:20:47.224Z,100716.77
2018-08-27T04:23:15.498Z,100720.72
2018-08-27T04:25:43.749Z,100717.98
2018-08-27T04:28:12.025Z,100720.35
2018-08-27T04:30:40.298Z,100722.52
2018-08-27T04:33:08.585Z,100718.89
2018-08-27T04:35:36.850Z,100713.50
2018-08-27T04:38:05.197Z,100710.83
2018-08-27T04:40:33.461Z,100715.95
2018-08-27T04:43:01.718Z,100717.95
2018-08-27T04:45:29.997Z,100708.75
2018-08-27T04:47:58.276Z,100712.73
2018-08-27T04:50:26.546Z,100710.02
2018-08-27T04:52:55.350Z,100711.16
2018-08-27T04:55:24.615Z,100709.19
2018-08-27T04:57:53.929Z,100702.06
2018-08-27T05:00:25.241Z,100697.51
2018-08-27T05:02:54.596Z,100701.92
2018-08-27T05:05:22.840Z,100695.80
2018-08-27T05:07:51.173Z,100694.67
2018-08-27T05:10:19.431Z,100692.86
2018-08-27T05:12:47.689Z,100688.13
2018-08-27T05:15:16.045Z,100688.44
2018-08-27T05:17:44.701Z,100681.23
2018-08-27T05:20:12.957Z,100682.50
2018-08-27T05:22:41.213Z,100663.75
2018-08-27T05:25:09.482Z,100662.08
2018-08-27T05:27:37.765Z,100653.66
2018-08-27T05:30:07.117Z,100662.69
2018-08-27T05:32:35.389Z,100669.05
2018-08-27T05:35:03.676Z,100658.20
2018-08-27T05:37:31.929Z,100663.28
2018-08-27T05:40:00.274Z,100658.20
2018-08-27T05:42:30.597Z,100660.19
2018-08-27T05:44:58.882Z,100654.97
2018-08-27T05:47:27.141Z,100651.91
2018-08-27T05:49:57.476Z,100654.51
2018-08-27T05:52:25.746Z,100650.52
2018-08-27T05:54:53.993Z,100644.05
2018-08-27T05:57:22.270Z,100646.96
2018-08-27T05:59:50.554Z,100649.20
2018-08-27T06:02:19.873Z,100655.70
2018-08-27T06:04:48.130Z,100639.89
2018-08-27T06:07:16.386Z,100644.30
2018-08-27T06:09:44.657Z,100645.07
2018-08-27T06:12:12.909Z,100635.94
2018-08-27T06:14:41.183Z,100630.45
2018-08-27T06:17:09.498Z,100631.72
2018-08-27T06:19:37.755Z,100631.39
2018-08-27T06:22:06.142Z,100634.69
2018-08-27T06:24:34.366Z,100632.87
2018-08-27T06:27:02.652Z,100635.19
2018-08-27T06:29:30.897Z,100638.79
2018-08-27T06:31:59.182Z,100637.09
2018-08-27T06:34:27.437Z,100631.66
2018-08-27T06:36:55.718Z,100629.97
2018-08-27T06:39:23.992Z,100623.52
2018-08-27T06:41:53.444Z,100629.56
2018-08-27T06:44:21.772Z,100628.39
2018-08-27T06:46:50.033Z,100628.39
2018-08-27T06:49:18.310Z,100624.91
2018-08-27T06:51:46.571Z,100616.81
2018-08-27T06:54:14.865Z,100620.91
2018-08-27T06:56:43.187Z,100617.84
2018-08-27T06:59:11.454Z,100606.97
2018-08-27T07:01:40.777Z,100603.63
2018-08-27T07:04:13.473Z,100604.34
2018-08-27T07:06:41.829Z,100604.66
2018-08-27T07:09:11.074Z,100601.22
2018-08-27T07:11:39.564Z,100604.89
2018-08-27T07:14:08.153Z,100594.42
2018-08-27T07:16:36.427Z,100594.39
2018-08-27T07:19:05.821Z,100586.81
2018-08-27T07:21:34.133Z,100585.90
2018-08-27T07:24:05.840Z,100583.36
2018-08-27T07:26:35.105Z,100580.84
2018-08-27T07:29:04.481Z,100584.67
2018-08-27T07:31:33.782Z,100579.61
2018-08-27T07:34:02.114Z,100567.88
2018-08-27T07:36:30.396Z,100577.59
2018-08-27T07:38:58.719Z,100568.20
2018-08-27T07:41:27.000Z,100572.04
2018-08-27T07:43:56.385Z,100575.79
2018-08-27T07:46:24.693Z,100573.84
2018-08-27T07:48:52.993Z,100568.55
2018-08-27T07:51:22.325Z,100569.50
2018-08-27T07:53:50.597Z,100568.97
2018-08-27T07:56:18.870Z,100570.97
2018-08-27T07:58:47.161Z,100569.53
2018-08-27T08:01:15.466Z,100575.13
2018-08-27T08:03:43.786Z,100578.30
2018-08-27T08:06:13.180Z,100576.59
2018-08-27T08:08:41.496Z,100575.31
2018-08-27T08:11:09.833Z,100579.88
2018-08-27T08:13:38.133Z,100584.54
2018-08-27T08:16:07.509Z,100567.84
2018-08-27T08:18:35.793Z,100574.47
2018-08-27T08:21:04.205Z,100580.42
2018-08-27T08:23:37.546Z,100568.56
2018-08-27T08:26:06.951Z,100570.82
2018-08-27T08:28:35.198Z,100577.94
2018-08-27T08:31:03.518Z,100578.00
2018-08-27T08:33:31.794Z,100577.42
2018-08-27T08:36:00.086Z,100575.70
2018-08-27T08:38:30.490Z,100574.61
2018-08-27T08:40:58.805Z,100568.30
2018-08-27T08:43:27.127Z,100572.90
2018-08-27T08:45:58.681Z,100574.42
2018-08-27T08:48:26.955Z,100577.39
2018-08-27T08:50:55.241Z,100577.09
2018-08-27T08:53:23.522Z,100577.60
2018-08-27T08:55:51.845Z,100580.08
2018-08-27T08:58:22.129Z,100572.35
2018-08-27T09:00:50.407Z,100577.78
2018-08-27T09:03:18.658Z,100579.08
2018-08-27T09:05:46.969Z,100576.57
2018-08-27T09:08:15.400Z,100577.45
2018-08-27T09:10:43.561Z,100577.06
2018-08-27T09:13:12.943Z,100578.38
2018-08-27T09:15:41.206Z,100570.36
2018-08-27T09:18:09.510Z,100559.24
2018-08-27T09:20:37.788Z,100585.16
2018-08-27T09:23:06.089Z,100573.80
2018-08-27T09:25:34.374Z,100565.39
2018-08-27T09:28:03.665Z,100562.95
2018-08-27T09:30:31.957Z,100564.77
2018-08-27T09:33:00.348Z,100567.53
2018-08-27T09:35:28.567Z,100572.80
2018-08-27T09:37:56.873Z,100577.45
2018-08-27T09:40:25.129Z,100571.22
2018-08-27T09:42:54.571Z,100564.91
2018-08-27T09:45:22.844Z,100563.47
2018-08-27T09:47:51.182Z,100567.59
2018-08-27T09:50:19.471Z,100567.30
2018-08-27T09:52:47.969Z,100567.75
2018-08-27T09:55:16.145Z,100578.48
2018-08-27T09:57:44.406Z,100580.31
2018-08-27T10:00:15.183Z,100576.55
2018-08-27T10:02:43.441Z,100577.19
2018-08-27T10:05:11.762Z,100584.46
2018-08-27T10:07:40.102Z,100567.91
2018-08-27T10:10:08.442Z,100576.17
2018-08-27T10:12:36.708Z,100574.05
2018-08-27T10:15:05.103Z,100574.72
2018-08-27T10:17:33.301Z,100573.21
2018-08-27T10:20:01.652Z,100577.78
2018-08-27T10:22:29.999Z,100574.70
2018-08-27T10:24:59.309Z,100575.19
2018-08-27T10:27:27.601Z,100577.44
2018-08-27T10:29:56.943Z,100576.66
2018-08-27T10:32:25.205Z,100588.61
2018-08-27T10:34:54.614Z,100584.64
2018-08-27T10:37:22.962Z,100583.52
2018-08-27T10:39:51.364Z,100598.19
2018-08-27T10:42:19.665Z,100594.58
2018-08-27T10:44:48.000Z,100593.20
2018-08-27T10:47:16.290Z,100584.36
2018-08-27T10:49:44.599Z,100587.26
2018-08-27T10:52:12.921Z,100584.19
2018-08-27T10:54:42.410Z,100575.86
2018-08-27T10:57:10.718Z,100578.88
2018-08-27T10:59:39.087Z,100583.69
2018-08-27T11:02:08.517Z,100584.00
2018-08-27T11:04:36.913Z,100582.25
2018-08-27T11:07:05.205Z,100584.42
2018-08-27T11:09:33.522Z,100569.36
2018-08-27T11:12:01.808Z,100578.12
2018-08-27T11:14:31.229Z,100574.36
2018-08-27T11:16:59.622Z,100585.36
2018-08-27T11:19:28.021Z,100593.08
2018-08-27T11:21:57.345Z,100588.66
2018-08-27T11:24:25.622Z,100602.45
2018-08-27T11:26:53.937Z,100603.18
2018-08-27T11:29:22.382Z,100593.55
2018-08-27T11:31:50.737Z,100599.70
2018-08-27T11:34:19.053Z,100609.84
2018-08-27T11:36:48.361Z,100614.00
2018-08-27T11:39:17.808Z,100613.95
2018-08-27T11:41:47.186Z,100621.36
2018-08-27T11:44:15.510Z,100627.64
2018-08-27T11:46:45.919Z,100621.57
2018-08-27T11:49:14.210Z,100610.42
2018-08-27T11:51:42.541Z,100621.92
2018-08-27T11:54:10.816Z,100629.37
2018-08-27T11:56:39.145Z,100638.02
2018-08-27T11:59:08.453Z,100639.12
2018-08-27T12:01:36.816Z,100633.69
2018-08-27T12:04:05.237Z,100633.41
2018-08-27T12:06:33.526Z,100650.52
2018-08-27T12:09:03.086Z,100645.75
2018-08-27T12:11:31.266Z,100657.27
2018-08-27T12:13:59.571Z,100651.25
2018-08-27T12:16:27.862Z,100673.09
2018-08-27T12:18:56.198Z,100666.66
2018-08-27T12:21:24.528Z,100671.98
2018-08-27T12:23:54.027Z,100675.29
2018-08-27T12:26:22.210Z,100686.87
2018-08-27T12:28:50.524Z,100659.38
2018-08-27T12:31:18.830Z,100661.92
2018-08-27T12:33:48.229Z,100664.38
2018-08-27T12:36:16.501Z,100661.86
2018-08-27T12:38:44.825Z,100665.03
2018-08-27T12:41:13.313Z,100668.45
2018-08-27T12:43:42.459Z,100675.83
2018-08-27T12:46:11.717Z,100684.47
2018-08-27T12:48:40.025Z,100679.63
2018-08-27T12:51:08.337Z,100677.40
2018-08-27T12:53:38.674Z,100694.36
2018-08-27T12:56:06.997Z,100699.61
2018-08-27T12:58:35.319Z,100692.95
2018-08-27T13:01:05.738Z,100690.75
2018-08-27T13:03:34.033Z,100695.03
2018-08-27T13:06:02.347Z,100687.42
2018-08-27T13:08:30.609Z,100691.22
2018-08-27T13:10:58.945Z,100682.61
2018-08-27T13:13:27.202Z,100686.64
2018-08-27T13:15:55.513Z,100699.36
2018-08-27T13:18:23.777Z,100691.62
2018-08-27T13:20:52.093Z,100709.19
2018-08-27T13:23:20.373Z,100702.95
2018-08-27T13:25:48.786Z,100719.45
2018-08-27T13:28:17.015Z,100730.54
2018-08-27T13:30:45.301Z,100726.30
2018-08-27T13:33:13.581Z,100738.63
2018-08-27T13:35:41.910Z,100739.34
2018-08-27T13:38:10.145Z,100725.66
2018-08-27T13:40:38.535Z,100721.42
2018-08-27T13:43:06.802Z,100718.08
2018-08-27T13:45:35.143Z,100722.44
2018-08-27T13:48:03.458Z,100729.91
2018-08-27T13:50:31.870Z,100731.31
2018-08-27T13:53:00.156Z,100726.59
2018-08-27T13:55:29.489Z,100734.22
2018-08-27T13:57:57.777Z,100732.28
2018-08-27T14:00:26.759Z,100736.19
2018-08-27T14:02:54.991Z,100736.24
2018-08-27T14:05:23.701Z,100740.27
2018-08-27T14:07:51.905Z,100735.80
2018-08-27T14:10:20.154Z,100742.77
2018-08-27T14:12:49.660Z,100743.06
2018-08-27T14:15:17.992Z,100747.95
2018-08-27T14:17:46.243Z,100746.77
2018-08-27T14:20:15.532Z,100747.70
2018-08-27T14:22:44.922Z,100754.13
2018-08-27T14:25:13.236Z,100758.08
2018-08-27T14:27:41.663Z,100758.75
2018-08-27T14:30:09.989Z,100779.80
2018-08-27T14:32:38.300Z,100764.14
2018-08-27T14:35:07.514Z,100755.16
2018-08-27T14:37:35.801Z,100760.52
2018-08-27T14:40:05.881Z,100761.52
2018-08-27T14:42:34.218Z,100775.13
2018-08-27T14:45:02.594Z,100774.69
2018-08-27T14:47:30.895Z,100776.50
2018-08-27T14:49:59.165Z,100793.84
2018-08-27T14:52:27.488Z,100786.25
2018-08-27T14:54:55.765Z,100783.73
2018-08-27T14:57:24.014Z,100796.21
2018-08-27T14:59:52.640Z,100793.47
2018-08-27T15:02:20.973Z,100800.67
2018-08-27T15:04:50.280Z,100811.64
2018-08-27T15:07:18.617Z,100809.44
2018-08-27T15:09:47.977Z,100813.45
2018-08-27T15:12:17.293Z,100810.37
2018-08-27T15:14:46.721Z,100816.34
2018-08-27T15:17:15.084Z,100821.00
2018-08-27T15:19:43.385Z,100833.72
2018-08-27T15:22:12.165Z,100828.98
2018-08-27T15:24:42.448Z,100814.99
2018-08-27T15:27:11.745Z,100829.16
2018-08-27T15:29:40.078Z,100818.75
2018-08-27T15:32:09.006Z,100808.16
2018-08-27T15:34:37.331Z,100809.86
2018-08-27T15:37:05.664Z,100822.47
2018-08-27T15:39:35.042Z,100832.34
2018-08-27T15:42:04.386Z,100840.46
2018-08-27T15:44:32.700Z,100862.56
2018-08-27T15:47:01.255Z,100860.16
2018-08-27T15:49:29.525Z,100861.31
2018-08-27T15:51:57.854Z,100844.85
2018-08-27T15:54:26.166Z,100844.69
2018-08-27T15:56:54.481Z,100859.34
2018-08-27T15:59:22.787Z,100864.47
2018-08-27T16:01:51.183Z,100849.08
2018-08-27T16:04:19.544Z,100849.23
2018-08-27T16:06:47.869Z,100873.08
2018-08-27T16:09:16.166Z,100874.88
2018-08-27T16:11:45.525Z,100888.39
2018-08-27T16:14:13.821Z,100874.97
2018-08-27T16:16:42.168Z,100883.20
2018-08-27T16:19:11.452Z,100917.61
2018-08-27T16:21:39.793Z,100901.66
2018-08-27T16:24:09.265Z,100902.22
2018-08-27T16:26:40.630Z,100907.77
2018-08-27T16:29:09.497Z,100901.47
2018-08-27T16:31:37.769Z,100930.10
2018-08-27T16:34:06.069Z,100944.27
2018-08-27T16:36:35.589Z,100944.81
2018-08-27T16:39:04.896Z,100964.84
2018-08-27T16:41:34.254Z,100982.64
2018-08-27T16:44:02.576Z,100975.59
2018-08-27T16:46:30.901Z,100973.44
2018-08-27T16:48:59.197Z,100967.97
2018-08-27T16:51:27.674Z,100969.08
2018-08-27T16:53:55.930Z,100976.03
2018-08-27T16:56:24.229Z,100972.89
2018-08-27T16:58:52.536Z,100977.03
2018-08-27T17:01:20.808Z,100980.06
2018-08-27T17:03:49.073Z,100983.06
2018-08-27T17:06:17.623Z,100993.78
2018-08-27T17:08:45.921Z,100977.08
2018-08-27T17:11:14.205Z,100996.16
2018-08-27T17:13:42.760Z,100996.16
2018-08-27T17:16:11.237Z,100992.66
2018-08-27T17:18:39.514Z,100997.29
2018-08-27T17:21:07.909Z,101004.88
2018-08-27T17:23:40.134Z,101002.06
2018-08-27T17:26:08.565Z,101009.20
2018-08-27T17:28:37.865Z,101009.03
2018-08-27T17:31:06.628Z,101015.81
2018-08-27T17:33:35.030Z,101021.43
2018-08-27T17:36:03.517Z,101028.08
2018-08-27T17:38:32.694Z,101028.73
2018-08-27T17:41:01.002Z,101036.69
2018-08-27T17:43:29.322Z,101044.46
2018-08-27T17:45:59.695Z,101049.91
2018-08-27T17:48:27.998Z,101047.61
2018-08-27T17:50:56.296Z,101062.44
2018-08-27T17:53:24.594Z,101056.84
2018-08-27T17:55:53.441Z,101058.50
2018-08-27T17:58:22.035Z,101065.60
2018-08-27T18:00:55.190Z,101069.05
2018-08-27T18:03:23.505Z,101085.93
2018-08-27T18:05:51.770Z,101080.78
2018-08-27T18:08:20.090Z,101084.91
2018-08-27T18:10:48.355Z,101088.86
2018-08-27T18:13:16.641Z,101090.80
2018-08-27T18:15:44.905Z,101093.72
2018-08-27T18:18:13.201Z,101094.71
2018-08-27T18:20:41.497Z,101105.91
2018-08-27T18:23:09.825Z,101101.66
2018-08-27T18:25:38.111Z,101108.89
2018-08-27T18:28:10.115Z,101110.88
2018-08-27T18:30:40.108Z,101120.75
2018-08-27T18:33:09.617Z,101116.49
2018-08-27T18:35:37.924Z,101130.00
2018-08-27T18:38:06.249Z,101129.51
2018-08-27T18:40:35.219Z,101134.92
2018-08-27T18:43:03.513Z,101138.88
2018-08-27T18:45:31.819Z,101138.89
2018-08-27T18:48:01.110Z,101142.85
2018-08-27T18:50:29.574Z,101153.38
2018-08-27T18:52:57.830Z,101151.40
2018-08-27T18:55:26.129Z,101151.11
2018-08-27T18:57:54.598Z,101158.01
2018-08-27T19:00:22.904Z,101157.46
2018-08-27T19:02:52.283Z,101160.81
2018-08-27T19:05:20.612Z,101163.17
2018-08-27T19:07:48.836Z,101164.77
2018-08-27T19:10:17.197Z,101174.17
2018-08-27T19:12:45.503Z,101182.87
2018-08-27T19:15:13.777Z,101177.86
2018-08-27T19:17:42.172Z,101183.71
2018-08-27T19:20:10.401Z,101190.42
2018-08-27T19:22:38.702Z,101195.11
2018-08-27T19:25:07.376Z,101194.77
2018-08-27T19:27:35.685Z,101191.18
2018-08-27T19:30:04.287Z,101196.95
2018-08-27T19:32:33.922Z,101197.66
2018-08-27T19:35:03.273Z,101198.64
2018-08-27T19:37:31.629Z,101207.40
2018-08-27T19:39:59.892Z,101203.64
2018-08-27T19:42:28.153Z,101206.13
2018-08-27T19:44:56.501Z,101212.81
2018-08-27T19:47:24.788Z,101209.40
2018-08-27T19:49:53.057Z,101218.41
2018-08-27T19:52:21.353Z,101216.87
2018-08-27T19:54:49.655Z,101228.64
2018-08-27T19:57:17.950Z,101224.89
2018-08-27T19:59:47.226Z,101230.42
2018-08-27T20:02:15.513Z,101233.61
2018-08-27T20:04:43.975Z,101234.47
2018-08-27T20:07:12.320Z,101240.31
2018-08-27T20:09:41.693Z,101232.63
2018-08-27T20:12:10.033Z,101238.41
2018-08-27T20:14:38.313Z,101234.23
2018-08-27T20:17:06.585Z,101233.70
2018-08-27T20:19:34.857Z,101230.88
2018-08-27T20:22:03.305Z,101237.42
2018-08-27T20:24:31.578Z,101240.13
2018-08-27T20:26:59.877Z,101240.58
2018-08-27T20:29:28.152Z,101254.55
2018-08-27T20:31:56.435Z,101245.27
2018-08-27T20:34:24.781Z,101246.50
2018-08-27T20:36:53.709Z,101244.75
2018-08-27T20:39:22.101Z,101251.65
2018-08-27T20:41:50.309Z,101255.70
2018-08-27T20:44:18.611Z,101262.23
2018-08-27T20:46:46.956Z,101262.33
2018-08-27T20:49:15.222Z,101261.16
2018-08-27T20:51:43.529Z,101269.78
2018-08-27T20:54:11.889Z,101273.97
2018-08-27T20:56:40.215Z,101267.69
2018-08-27T20:59:08.483Z,101272.64
2018-08-27T21:01:36.801Z,101278.08
2018-08-27T21:04:05.119Z,101280.14
2018-08-27T21:06:33.396Z,101279.16
2018-08-27T21:09:02.745Z,101275.44
2018-08-27T21:11:31.091Z,101285.50
2018-08-27T21:14:30.921Z,101291.86
2018-08-27T21:16:59.244Z,101293.59
2018-08-27T21:19:27.505Z,101297.44
2018-08-27T21:21:55.789Z,101304.20
2018-08-27T21:24:24.081Z,101302.57
2018-08-27T21:27:56.426Z,101297.63
2018-08-27T21:30:24.709Z,101309.95
2018-08-27T21:32:53.006Z,101314.49
2018-08-27T21:35:21.286Z,101321.34
2018-08-27T21:37:49.577Z,101328.96
2018-08-27T21:40:17.855Z,101342.37
2018-08-27T21:42:46.143Z,101335.05
2018-08-27T21:45:14.421Z,101332.89
2018-08-27T21:47:42.713Z,101341.55
2018-08-27T21:50:10.981Z,101336.98
2018-08-27T21:52:39.240Z,101337.28
2018-08-27T21:55:07.565Z,101337.98
2018-08-27T21:57:35.802Z,101329.79
2018-08-27T22:00:06.021Z,101334.80
2018-08-27T22:02:39.351Z,101333.07
2018-08-27T22:05:07.930Z,101337.77
2018-08-27T22:07:36.195Z,101332.16
2018-08-27T22:10:04.540Z,101335.63
2018-08-27T22:12:32.808Z,101339.19
2018-08-27T22:15:01.172Z,101342.75
2018-08-27T22:17:29.463Z,101341.09
2018-08-27T22:19:57.857Z,101347.27
2018-08-27T22:22:26.219Z,101362.09
2018-08-27T22:24:54.509Z,101379.25
2018-08-27T22:27:22.805Z,101369.08
2018-08-27T22:29:51.093Z,101366.66
2018-08-27T22:32:19.605Z,101364.84
2018-08-27T22:34:47.877Z,101366.98
2018-08-27T22:37:16.257Z,101364.83
2018-08-27T22:39:44.549Z,101362.27
2018-08-27T22:42:12.873Z,101371.92
2018-08-27T22:44:41.117Z,101368.14
2018-08-27T22:47:11.090Z,101373.31
2018-08-27T22:49:41.285Z,101363.95
2018-08-27T22:52:09.630Z,101360.45
2018-08-27T22:54:37.903Z,101361.61
2018-08-27T22:57:06.484Z,101368.82
2018-08-27T22:59:34.931Z,101373.08
2018-08-27T23:02:03.484Z,101364.27
2018-08-27T23:04:37.021Z,101363.73
2018-08-27T23:07:05.426Z,101363.95
2018-08-27T23:09:33.862Z,101367.30
2018-08-27T23:12:02.153Z,101376.55
2018-08-27T23:14:30.433Z,101379.04
2018-08-27T23:16:58.769Z,101380.59
2018-08-27T23:19:27.041Z,101379.27
2018-08-27T23:21:55.428Z,101384.80
2018-08-27T23:24:24.737Z,101388.63
2018-08-27T23:26:53.033Z,101391.48
2018-08-27T23:29:21.459Z,101392.40
2018-08-27T23:31:49.761Z,101394.41
2018-08-27T23:34:18.153Z,101396.63
2018-08-27T23:36:46.397Z,101390.25
2018-08-27T23:39:15.001Z,101393.14
2018-08-27T23:41:43.269Z,101395.66
2018-08-27T23:44:12.595Z,101402.25
2018-08-27T23:46:41.833Z,101405.65
2018-08-27T23:49:10.114Z,101408.07
2018-08-27T23:51:38.412Z,101410.48
2018-08-27T23:54:06.797Z,101412.92
2018-08-27T23:56:35.070Z,101413.00
2018-08-27T23:59:03.353Z,101412.58
